• Join FlightAware (Why Join?)
  • Login
  • US Flag 
08:14PM EDT


 

Airport Tracker/Info


-or-


 

Live Flight TrackerFlight Track Log ✈ GJS3618 ✈ 11-May-2013 ✈ KDEN - KOKC

Flight Track Log - Related Links

Times and Time Zones

All times are in EDT time to prevent confusion due to time zone crossing. See the GJS3618 flight status page for this flight to view local times or setup timezone preferences in your user account.

Time Position Orientation Groundspeed Altitude Reporting Facility
EDT Latitude Longitude Course Direction KTS MPH feet Rate Location/Type
12:29PM 39.8172 -104.6389 110° East 159 183 7,000  Level Denver Center
12:30PM 39.7703 -104.5906 142° Southeast 201 231 8,900 1,500 Climbing Denver Center
12:31PM 39.7475 -104.4958 107° East 274 315 10,100 1,080 Climbing Denver Center
12:32PM 39.7419 -104.3758 93° East 329 379 11,200 1,980 Climbing Denver Center
12:33PM 39.7192 -104.2444 103° East 354 407 14,200 2,580 Climbing Denver Center
12:34PM 39.6850 -104.1206 110° East 364 419 16,600 1,860 Climbing Denver Center
12:35PM 39.6119 -103.8916 110° East  Level FlightAware Approximate
12:35PM 39.6436 -103.9825 111° Southeast 380 437 18,100  Level Denver Center
12:36PM 39.6050 -103.8478 110° East 398 458 19,900 1,740 Climbing Denver Center
12:37PM 39.5656 -103.6953 109° East 408 470 21,800 1,620 Climbing Denver Center
12:38PM 39.5286 -103.5564 109° East 423 487 23,300 1,680 Climbing Denver Center
12:39PM 39.4844 -103.3886 109° East 438 504 25,300 1,680 Climbing Denver Center
12:40PM 39.4461 -103.2444 109° East 441 507 26,800 1,440 Climbing Denver Center
12:42PM 39.4078 -103.0994 109° East 445 512 28,300 1,260 Climbing Denver Center
12:43PM 39.3614 -102.9292 109° East 448 516 29,500 960 Climbing Denver Center
12:44PM 39.3214 -102.7786 109° East 461 531 30,400 960 Climbing Denver Center
12:45PM 39.2756 -102.6108 109° East 466 536 31,500 1,020 Climbing Denver Center
12:46PM 39.2269 -102.4325 109° East 470 541 32,600 960 Climbing Denver Center
12:47PM 39.1853 -102.2800 109° East 471 542 33,600 960 Climbing Denver Center
12:48PM 39.1367 -102.1033 109° East 469 540 34,700 960 Climbing Denver Center
12:49PM 39.0681 -101.9672 123° Southeast 474 545 35,700 780 Climbing Denver Center
12:50PM 38.9544 -101.8422 139° Southeast 480 552 36,600 780 Climbing Denver Center
12:51PM 38.8431 -101.7181 139° Southeast 477 549 37,500 840 Climbing Denver Center
12:52PM 38.7311 -101.5964 140° Southeast 472 543 38,400 720 Climbing Denver Center
12:53PM 38.6361 -101.4928 140° Southeast 470 541 39,000 240 Climbing Denver Center
12:54PM 38.5250 -101.3733 140° Southeast 467 537 39,000  Level Denver Center
12:55PM 38.4308 -101.2708 140° Southeast 467 537 39,000  Level Denver Center
12:56PM 38.3131 -101.1228 135° Southeast 463 533 39,000  Level Denver Center
12:57PM 38.2256 -101.0133 135° Southeast 461 531 39,000  Level Denver Center
12:58PM 38.1242 -100.8864 135° Southeast 458 527 39,000  Level Denver Center
01:00PM 38.0372 -100.7778 135° Southeast 456 525 39,000  Level Denver Center
01:01PM 37.9347 -100.6508 136° Southeast 458 527 39,000  Level Denver Center
01:02PM 37.8331 -100.5222 135° Southeast 458 527 39,000  Level Kansas City Center
01:03PM 37.7436 -100.4139 136° Southeast 463 533 39,000  Level Kansas City Center
01:04PM 37.6403 -100.2858 136° Southeast 463 533 39,000  Level Kansas City Center
01:05PM 37.5508 -100.1767 136° Southeast 465 535 39,000  Level Kansas City Center
01:06PM 37.4464 -100.0486 136° Southeast 467 537 39,000  Level Kansas City Center
01:07PM 37.3586 -99.9419 136° Southeast 462 532 39,000  Level Kansas City Center
01:08PM 37.2575 -99.8192 136° Southeast 454 522 39,000 -60 Level Kansas City Center
01:09PM 37.1711 -99.7156 136° Southeast 450 518 38,900 -540 Descending Kansas City Center
01:10PM 37.0853 -99.6125 136° Southeast 447 514 37,900 -1,020 Descending Kansas City Center
01:11PM 36.9842 -99.4928 137° Southeast 454 522 36,800 -1,020 Descending Kansas City Center
01:12PM 36.8903 -99.3836 137° Southeast 458 527 35,800 -1,020 Descending Kansas City Center
01:13PM 36.7978 -99.2728 136° Southeast 458 527 34,800 -1,260 Descending Kansas City Center
01:14PM 36.7058 -99.1631 136° Southeast 455 524 33,300 -1,800 Descending Kansas City Center
01:15PM 36.6144 -99.0583 137° Southeast 447 514 31,200 -2,280 Descending Kansas City Center
01:16PM 36.5222 -98.9469 136° Southeast 452 520 28,600 -2,760 Descending Kansas City Center
01:17PM 36.4117 -98.8161 136° Southeast 454 522 25,600 -2,220 Descending Kansas City Center
01:18PM 36.3236 -98.7147 137° Southeast 432 497 24,100 -2,040 Descending Kansas City Center
01:19PM 36.2386 -98.6150 137° Southeast 420 483 21,400 -2,580 Descending Kansas City Center
01:20PM 36.1539 -98.5181 137° Southeast 413 475 18,800 -2,400 Descending Kansas City Center
01:21PM 36.0736 -98.4261 137° Southeast 398 458 16,500 -2,340 Descending Kansas City Center
01:22PM 35.9967 -98.3367 137° Southeast 383 441 14,000 -2,340 Descending Kansas City Center
01:23PM 35.9225 -98.2519 137° Southeast 368 423 11,700 -1,440 Descending Kansas City Center
01:25PM 35.8211 -98.1381 138° Southeast 354 407 10,600 -1,200 Descending Fort Worth Center
01:26PM 35.7611 -98.0658 136° Southeast 321 369 9,000 -1,680 Descending Fort Worth Center
01:27PM 35.6989 -98.0092 144° Southeast 301 346 7,300 -1,500 Descending Fort Worth Center
01:28PM 35.6364 -97.9628 149° Southeast 285 328 6,100 -660 Descending Fort Worth Center
01:29PM 35.5636 -97.9061 148° Southeast 280 322 6,000 -60 Descending Fort Worth Center
01:30PM 35.4972 -97.8547 148° Southeast 280 322 6,000  Level Fort Worth Center
01:30PM 35.4806 -97.8419 148° Southeast 286 329 6,000  Level Fort Worth Center
01:31PM 35.4306 -97.8033 148° Southeast 280 322 6,000  Level Fort Worth Center
01:31PM 35.4139 -97.7956 159° South 287 330 6,000  Level Fort Worth Center
01:32PM 35.3619 -97.7522 146° Southeast 280 322 6,000 -300 Level Fort Worth Center
01:32PM 35.3475 -97.7419 150° Southeast 287 330 5,700 -1,020 Descending Fort Worth Center
01:33PM 35.2975 -97.7011 146° Southeast 280 322 5,000 -840 Descending Fort Worth Center
01:33PM 35.2808 -97.6908 153° Southeast 251 289 4,900 -1,140 Descending Fort Worth Center
01:34PM 35.2517 -97.6500 131° Southeast 255 293 3,900 -1,380 Descending Fort Worth Center
01:34PM 35.2558 -97.6322 74° East 198 228 3,500 -1,020 Descending Fort Worth Center
01:35PM 35.2892 -97.6119 26° Northeast 123 142 2,900 -840 Descending Fort Worth Center
01:35PM 35.2997 -97.6094 11° North 164 189 2,700 -720 Descending Fort Worth Center
01:36PM 35.3289 -97.6069 North 98 113 2,200 -720 Descending Fort Worth Center
01:36PM 35.3394 -97.6119 339° North 118 136 2,000 -720 Descending Fort Worth Center
01:37PM 35.3644 -97.6094 North 105 121 1,500 -780 Descending Fort Worth Center